Main page
METAR-TAF:

METAR-TAF

Airports :

Mardin Airport

Mardin, Turkey

latitude: 37-13-58N, longitude: 40-38-26E, elevation: 527 m

Current weather observation

The report was made 44 minutes ago, at 15:50 UTC
Wind 9 kt from the West/Southwest, varying between South/Southwest and West/Northwest
Temperature 34°C
Humidity 18%
Pressure 1007 hPa
Visibility 10 km or more
no clouds below 1500 m and no cumulonimbus

METAR: LTCR 221550Z 25009KT 200V290 CAVOK 34/06 Q1007

Time: 19:34 (16:34 UTC)

Forecast

The report was made 2 hours and 54 minutes ago, at 13:40 UTC
Forecast valid from 22 at 15 UTC to 22 at 24 UTC
Wind 12 kt from the Southwest
Visibility 10 km or more
no clouds below 1500 m and no cumulonimbus
Becoming
from 22 at 17 UTC to 22 at 19 UTC
Wind 2 kt from variable directions

TAF: LTCR 221340Z 2215/2224 22012KT CAVOK BECMG 2217/2219 VRB02KT

Weather observations and forecasts of more than 4000 airports (METAR and TAF reports).

The available stations are represented by yellow and red dots on the map.

Hover mouse over dot to see the name of the station.

Then click to see weather observations and forecasts.

To change the map : click on the green buttons with a black cross to zoom in, on the green button with a dash to zoom out, or on the green arrows for adjacent maps.


METAR-TAF: